sensor_id;sensor_type;location;lat;lon;timestamp;temperature;humidity
35682;DHT22;21805;51.022;4.782;2024-02-21T02:13:18;11.00;99.90
35682;DHT22;21805;51.022;4.782;2024-02-21T02:15:46;11.00;99.90
35682;DHT22;21805;51.022;4.782;2024-02-21T02:18:19;11.00;99.90
35682;DHT22;21805;51.022;4.782;2024-02-21T02:21:01;11.00;99.90
35682;DHT22;21805;51.022;4.782;2024-02-21T07:43:35;10.50;99.90
35682;DHT22;21805;51.022;4.782;2024-02-21T07:46:21;10.50;99.90
35682;DHT22;21805;51.022;4.782;2024-02-21T07:49:25;10.40;99.90
35682;DHT22;21805;51.022;4.782;2024-02-21T07:52:21;10.30;99.90
35682;DHT22;21805;51.022;4.782;2024-02-21T08:31:42;10.30;99.90
35682;DHT22;21805;51.022;4.782;2024-02-21T08:35:23;10.40;99.90
35682;DHT22;21805;51.022;4.782;2024-02-21T08:48:50;10.20;99.90
35682;DHT22;21805;51.022;4.782;2024-02-21T09:00:31;10.30;99.90
35682;DHT22;21805;51.022;4.782;2024-02-21T09:50:02;11.30;99.90
35682;DHT22;21805;51.022;4.782;2024-02-21T09:57:51;11.60;99.90
35682;DHT22;21805;51.022;4.782;2024-02-21T10:00:36;11.70;99.90
35682;DHT22;21805;51.022;4.782;2024-02-21T10:03:05;11.80;99.90
35682;DHT22;21805;51.022;4.782;2024-02-21T10:11:27;11.80;99.90
35682;DHT22;21805;51.022;4.782;2024-02-21T10:16:37;11.80;99.90
35682;DHT22;21805;51.022;4.782;2024-02-21T10:19:23;11.90;99.90
35682;DHT22;21805;51.022;4.782;2024-02-21T10:22:27;11.90;99.90
35682;DHT22;21805;51.022;4.782;2024-02-21T10:25:46;12.00;99.90
35682;DHT22;21805;51.022;4.782;2024-02-21T10:28:18;12.10;99.90
35682;DHT22;21805;51.022;4.782;2024-02-21T10:30:59;12.10;99.90
35682;DHT22;21805;51.022;4.782;2024-02-21T10:42:15;12.00;99.90
35682;DHT22;21805;51.022;4.782;2024-02-21T10:44:53;12.20;99.90
35682;DHT22;21805;51.022;4.782;2024-02-21T11:00:27;12.60;99.90
35682;DHT22;21805;51.022;4.782;2024-02-21T11:03:33;12.70;99.90
35682;DHT22;21805;51.022;4.782;2024-02-21T11:06:03;12.60;99.90
35682;DHT22;21805;51.022;4.782;2024-02-21T11:08:45;12.60;99.90
35682;DHT22;21805;51.022;4.782;2024-02-21T11:11:13;12.60;99.90
35682;DHT22;21805;51.022;4.782;2024-02-21T11:13:49;12.50;99.90
35682;DHT22;21805;51.022;4.782;2024-02-21T11:16:23;12.50;99.90
35682;DHT22;21805;51.022;4.782;2024-02-21T11:18:50;12.50;99.90
35682;DHT22;21805;51.022;4.782;2024-02-21T11:21:16;12.50;99.90
35682;DHT22;21805;51.022;4.782;2024-02-21T11:23:43;12.50;99.90
35682;DHT22;21805;51.022;4.782;2024-02-21T11:26:19;12.60;99.90
35682;DHT22;21805;51.022;4.782;2024-02-21T11:29:01;12.70;99.90
35682;DHT22;21805;51.022;4.782;2024-02-21T11:31:39;12.80;99.90
35682;DHT22;21805;51.022;4.782;2024-02-21T11:34:12;12.90;99.90
35682;DHT22;21805;51.022;4.782;2024-02-21T11:36:53;13.00;99.90
35682;DHT22;21805;51.022;4.782;2024-02-21T11:39:28;13.10;99.90
35682;DHT22;21805;51.022;4.782;2024-02-21T11:42:08;13.20;99.90
35682;DHT22;21805;51.022;4.782;2024-02-21T11:44:37;13.20;99.90
35682;DHT22;21805;51.022;4.782;2024-02-21T11:47:15;13.10;99.90
35682;DHT22;21805;51.022;4.782;2024-02-21T11:49:46;13.10;99.90
35682;DHT22;21805;51.022;4.782;2024-02-21T11:52:15;13.10;99.90
35682;DHT22;21805;51.022;4.782;2024-02-21T11:54:48;13.10;99.90
35682;DHT22;21805;51.022;4.782;2024-02-21T11:57:17;13.10;99.90
35682;DHT22;21805;51.022;4.782;2024-02-21T12:02:45;12.90;99.90
35682;DHT22;21805;51.022;4.782;2024-02-21T12:05:16;13.00;99.90
35682;DHT22;21805;51.022;4.782;2024-02-21T12:13:44;13.10;99.90
35682;DHT22;21805;51.022;4.782;2024-02-21T12:16:11;13.00;99.90
35682;DHT22;21805;51.022;4.782;2024-02-21T12:26:22;12.80;99.90
35682;DHT22;21805;51.022;4.782;2024-02-21T12:28:55;12.80;99.90
35682;DHT22;21805;51.022;4.782;2024-02-21T12:31:42;12.80;99.90
35682;DHT22;21805;51.022;4.782;2024-02-21T12:37:06;12.80;99.90
35682;DHT22;21805;51.022;4.782;2024-02-21T12:44:52;12.60;99.90
35682;DHT22;21805;51.022;4.782;2024-02-21T12:47:33;12.70;99.90
35682;DHT22;21805;51.022;4.782;2024-02-21T12:50:07;12.60;99.90
35682;DHT22;21805;51.022;4.782;2024-02-21T12:52:41;12.70;99.90
35682;DHT22;21805;51.022;4.782;2024-02-21T12:55:14;12.60;99.90
35682;DHT22;21805;51.022;4.782;2024-02-21T12:57:44;12.70;99.90
35682;DHT22;21805;51.022;4.782;2024-02-21T13:00:10;12.80;99.90
35682;DHT22;21805;51.022;4.782;2024-02-21T13:02:37;12.90;99.90
35682;DHT22;21805;51.022;4.782;2024-02-21T13:05:03;12.80;99.90
35682;DHT22;21805;51.022;4.782;2024-02-21T13:07:29;12.80;99.90
35682;DHT22;21805;51.022;4.782;2024-02-21T13:10:02;12.70;99.90
35682;DHT22;21805;51.022;4.782;2024-02-21T13:12:32;12.60;99.90
35682;DHT22;21805;51.022;4.782;2024-02-21T13:15:01;12.60;99.90
35682;DHT22;21805;51.022;4.782;2024-02-21T13:17:39;12.50;99.90
35682;DHT22;21805;51.022;4.782;2024-02-21T13:22:39;12.60;99.90
35682;DHT22;21805;51.022;4.782;2024-02-21T13:25:10;12.70;99.90
35682;DHT22;21805;51.022;4.782;2024-02-21T13:27:37;12.70;99.90
35682;DHT22;21805;51.022;4.782;2024-02-21T13:30:05;12.80;99.90
35682;DHT22;21805;51.022;4.782;2024-02-21T13:32:36;12.90;99.90
35682;DHT22;21805;51.022;4.782;2024-02-21T13:35:08;12.80;99.90
35682;DHT22;21805;51.022;4.782;2024-02-21T13:37:35;12.80;99.90
35682;DHT22;21805;51.022;4.782;2024-02-21T13:40:09;12.80;99.90
35682;DHT22;21805;51.022;4.782;2024-02-21T13:42:35;12.80;99.90
35682;DHT22;21805;51.022;4.782;2024-02-21T13:45:03;12.90;99.90
35682;DHT22;21805;51.022;4.782;2024-02-21T13:47:31;12.90;99.90
35682;DHT22;21805;51.022;4.782;2024-02-21T13:49:58;12.80;99.90
35682;DHT22;21805;51.022;4.782;2024-02-21T13:52:24;12.80;99.90
35682;DHT22;21805;51.022;4.782;2024-02-21T13:54:54;12.80;99.90
35682;DHT22;21805;51.022;4.782;2024-02-21T13:57:20;12.80;99.90
35682;DHT22;21805;51.022;4.782;2024-02-21T13:59:46;12.80;99.90
35682;DHT22;21805;51.022;4.782;2024-02-21T14:02:31;12.80;99.90
35682;DHT22;21805;51.022;4.782;2024-02-21T14:05:14;12.90;99.90
35682;DHT22;21805;51.022;4.782;2024-02-21T14:07:43;12.90;99.90
35682;DHT22;21805;51.022;4.782;2024-02-21T14:10:11;12.80;99.90
35682;DHT22;21805;51.022;4.782;2024-02-21T14:12:38;12.70;99.90
35682;DHT22;21805;51.022;4.782;2024-02-21T14:15:04;12.60;99.90
35682;DHT22;21805;51.022;4.782;2024-02-21T14:17:33;12.50;99.90
35682;DHT22;21805;51.022;4.782;2024-02-21T14:23:00;12.30;99.90
35682;DHT22;21805;51.022;4.782;2024-02-21T14:25:27;12.30;99.90
35682;DHT22;21805;51.022;4.782;2024-02-21T14:27:56;12.30;99.90
35682;DHT22;21805;51.022;4.782;2024-02-21T14:30:24;12.20;99.90
35682;DHT22;21805;51.022;4.782;2024-02-21T14:33:07;12.20;99.90
35682;DHT22;21805;51.022;4.782;2024-02-21T14:35:39;12.10;99.90
35682;DHT22;21805;51.022;4.782;2024-02-21T14:38:05;12.10;99.90
35682;DHT22;21805;51.022;4.782;2024-02-21T14:40:37;12.00;99.90
35682;DHT22;21805;51.022;4.782;2024-02-21T14:43:03;11.90;99.90
35682;DHT22;21805;51.022;4.782;2024-02-21T14:45:35;11.80;99.90
35682;DHT22;21805;51.022;4.782;2024-02-21T14:48:07;11.70;99.90
35682;DHT22;21805;51.022;4.782;2024-02-21T14:50:39;11.60;99.90
35682;DHT22;21805;51.022;4.782;2024-02-21T14:53:10;11.60;99.90
35682;DHT22;21805;51.022;4.782;2024-02-21T14:55:36;11.60;99.90
35682;DHT22;21805;51.022;4.782;2024-02-21T14:58:06;11.60;99.90
35682;DHT22;21805;51.022;4.782;2024-02-21T15:00:37;11.40;99.90
35682;DHT22;21805;51.022;4.782;2024-02-21T15:03:08;11.40;99.90
35682;DHT22;21805;51.022;4.782;2024-02-21T15:05:59;11.40;99.90
35682;DHT22;21805;51.022;4.782;2024-02-21T15:08:34;11.40;99.90
35682;DHT22;21805;51.022;4.782;2024-02-21T15:11:22;11.20;99.90
35682;DHT22;21805;51.022;4.782;2024-02-21T15:13:52;11.30;99.90
35682;DHT22;21805;51.022;4.782;2024-02-21T20:24:10;10.90;99.90
35682;DHT22;21805;51.022;4.782;2024-02-21T20:26:38;10.90;99.90
35682;DHT22;21805;51.022;4.782;2024-02-21T20:29:12;11.00;99.90
35682;DHT22;21805;51.022;4.782;2024-02-21T20:31:43;10.90;99.90
35682;DHT22;21805;51.022;4.782;2024-02-21T20:34:16;11.10;99.90
